KAIZ

Lee C Fine Memorial Airport

Kaiser/Lake Ozark, Missouri, USA
METAR KAIZ 212356Z AUTO 04009KT 10SM OVC006 M03/M03 A3052 RMK AO2 SLP344 T10281033 11028 21033 53011 FZRANO
Observed Flight Rules
Feb-21 @ 23:56 UTC (5 hours ago) Instrument Flight Rules
Wind Visibility Clouds
40° at 9 knots 10 miles
  • Overcast at 600' AGL
Temperatures Readings
Current -3°C / 27°F
Dewpoint -3°C / 27°F
Humidity 100%
Altimeter 30.52" Hg
Pressure 1034.4 hPa
Elevation 265
METAR KAIZ 212356Z AUTO 04009KT 10SM OVC006 M03/M03 A3052 RMK AO2 SLP344 T10281033 11028 21033 53011 FZRANO
Observed Flight Rules
Feb-21 @ 23:56 UTC
(5 hours ago)
IFR
Wind Visibility
40° at 9 knots 10 miles
Clouds
  • Overcast at 600' AGL
Temperature Dewpoint
-3°C / 27°F -3°C / 27°F
Humidity Altimeter Pressure
100% 30.52" Hg 1034.4 hPa